Time,TemperatureF,DewpointF,PressureIn,WindDirection,WindDirectionDegrees,WindSpeedMPH,WindSpeedGustMPH,Humidity,HourlyPrecipIn,Conditions,Clouds,dailyrainin,SoftwareType,DateUTC
2013-02-10 00:01:00,32.0,24.0,-100.00,North,350,3.0,7.0,72,-99.99,,,-99.99,,2013-02-10 08:01:00,
2013-02-10 00:10:00,33.0,25.0,-100.00,NNW,335,5.0,8.0,72,-99.99,,,-99.99,,2013-02-10 08:10:00,
2013-02-10 01:02:00,33.0,25.0,-100.00,NNW,335,5.0,8.0,72,-99.99,,,-99.99,,2013-02-10 09:02:00,
2013-02-10 02:01:00,32.0,25.0,-100.00,NW,320,5.0,10.0,75,-99.99,,,-99.99,,2013-02-10 10:01:00,
2013-02-10 02:10:00,31.0,24.0,-100.00,NNW,340,3.0,7.0,74,-99.99,,,-99.99,,2013-02-10 10:10:00,
2013-02-10 02:11:00,32.0,25.0,-100.00,NW,320,5.0,10.0,75,-99.99,,,-99.99,,2013-02-10 10:11:00,
2013-02-10 03:01:00,31.0,24.0,-100.00,NNW,340,3.0,7.0,74,-99.99,,,-99.99,,2013-02-10 11:01:00,
2013-02-10 04:01:00,30.0,25.0,-100.00,NNW,335,6.0,10.0,81,-99.99,,,-99.99,,2013-02-10 12:01:00,
2013-02-10 04:12:00,30.0,25.0,-100.00,NNW,335,6.0,10.0,81,-99.99,,,-99.99,,2013-02-10 12:12:00,
2013-02-10 05:02:00,30.0,25.0,-100.00,NNW,330,3.0,10.0,81,-99.99,,,-99.99,,2013-02-10 13:02:00,
2013-02-10 05:10:00,30.0,25.0,-100.00,North,355,5.0,10.0,81,-99.99,,,-99.99,,2013-02-10 13:10:00,
2013-02-10 06:02:00,30.0,25.0,-100.00,North,355,5.0,10.0,81,-99.99,,,-99.99,,2013-02-10 14:02:00,
2013-02-10 07:01:00,29.0,24.0,-100.00,NW,320,6.0,7.0,81,-99.99,,,-99.99,,2013-02-10 15:01:00,
2013-02-10 07:10:00,29.0,24.0,-100.00,NW,310,3.0,6.0,81,-99.99,,,-99.99,,2013-02-10 15:10:00,
2013-02-10 07:11:00,29.0,24.0,-100.00,NW,320,6.0,7.0,81,-99.99,,,-99.99,,2013-02-10 15:11:00,
2013-02-10 08:01:00,29.0,24.0,-100.00,NW,310,3.0,6.0,81,-99.99,,,-99.99,,2013-02-10 16:01:00,
2013-02-10 09:01:00,30.0,25.0,-100.00,NW,310,6.0,9.0,81,-99.99,,,-99.99,,2013-02-10 17:01:00,
2013-02-10 09:11:00,30.0,25.0,-100.00,NW,310,6.0,9.0,81,-99.99,,,-99.99,,2013-02-10 17:11:00,
2013-02-10 09:20:00,35.0,26.0,-100.00,North,355,3.0,6.0,69,-99.99,,,-99.99,,2013-02-10 17:20:00,
2013-02-10 10:02:00,35.0,26.0,-100.00,North,355,3.0,6.0,69,-99.99,,,-99.99,,2013-02-10 18:02:00,
2013-02-10 10:10:00,40.0,26.0,-100.00,South,170,1.0,3.0,57,-99.99,,,-99.99,,2013-02-10 18:10:00,
2013-02-10 10:11:00,35.0,26.0,-100.00,North,355,3.0,6.0,69,-99.99,,,-99.99,,2013-02-10 18:11:00,
2013-02-10 11:01:00,40.0,26.0,-100.00,South,170,1.0,3.0,57,-99.99,,,-99.99,,2013-02-10 19:01:00,
2013-02-10 12:02:00,41.0,26.0,-100.00,SE,140,3.0,6.0,54,-99.99,,,-99.99,,2013-02-10 20:02:00,
2013-02-10 12:11:00,41.0,26.0,-100.00,SE,140,3.0,6.0,54,-99.99,,,-99.99,,2013-02-10 20:11:00,
2013-02-10 13:02:00,47.0,27.0,-100.00,ESE,105,1.0,3.0,45,-99.99,,,-99.99,,2013-02-10 21:02:00,
2013-02-10 13:10:00,51.0,26.0,-100.00,South,190,1.0,3.0,37,-99.99,,,-99.99,,2013-02-10 21:10:00,
2013-02-10 14:01:00,51.0,26.0,-100.00,South,190,1.0,3.0,37,-99.99,,,-99.99,,2013-02-10 22:01:00,
2013-02-10 15:02:00,52.0,26.0,-100.00,SE,130,2.0,3.0,36,-99.99,,,-99.99,,2013-02-10 23:02:00,
2013-02-10 15:10:00,51.0,24.0,-100.00,SSW,200,2.0,3.0,34,-99.99,,,-99.99,,2013-02-10 23:10:00,
2013-02-10 15:11:00,52.0,26.0,-100.00,SE,130,2.0,3.0,36,-99.99,,,-99.99,,2013-02-10 23:11:00,
2013-02-10 16:01:00,51.0,24.0,-100.00,SSW,200,2.0,3.0,34,-99.99,,,-99.99,,2013-02-11 00:01:00,
2013-02-10 17:01:00,45.0,23.0,-100.00,SW,220,2.0,2.0,41,-99.99,,,-99.99,,2013-02-11 01:01:00,
2013-02-10 17:11:00,45.0,23.0,-100.00,SW,220,2.0,2.0,41,-99.99,,,-99.99,,2013-02-11 01:11:00,
2013-02-10 18:01:00,40.0,23.0,-100.00,West,270,1.0,1.0,50,-99.99,,,-99.99,,2013-02-11 02:01:00,
2013-02-10 18:10:00,38.0,25.0,-100.00,NW,305,5.0,12.0,59,-99.99,,,-99.99,,2013-02-11 02:10:00,
2013-02-10 19:01:00,38.0,25.0,-100.00,NW,305,5.0,12.0,59,-99.99,,,-99.99,,2013-02-11 03:01:00,
2013-02-10 20:01:00,36.0,25.0,-100.00,NNW,345,3.0,8.0,63,-99.99,,,-99.99,,2013-02-11 04:01:00,
2013-02-10 20:10:00,33.0,25.0,-100.00,NW,315,3.0,5.0,72,-99.99,,,-99.99,,2013-02-11 04:10:00,
2013-02-10 20:11:00,36.0,25.0,-100.00,NNW,345,3.0,8.0,63,-99.99,,,-99.99,,2013-02-11 04:11:00,
2013-02-10 21:01:00,33.0,25.0,-100.00,NW,315,3.0,5.0,72,-99.99,,,-99.99,,2013-02-11 05:01:00,
2013-02-10 22:01:00,32.0,26.0,-100.00,NNW,340,0.0,5.0,78,-99.99,,,-99.99,,2013-02-11 06:01:00,
2013-02-10 22:11:00,32.0,26.0,-100.00,NNW,340,0.0,5.0,78,-99.99,,,-99.99,,2013-02-11 06:11:00,
2013-02-10 22:20:00,29.0,24.0,-100.00,WSW,250,1.0,3.0,81,-99.99,,,-99.99,,2013-02-11 06:20:00,
2013-02-10 23:01:00,29.0,24.0,-100.00,WSW,250,1.0,3.0,81,-99.99,,,-99.99,,2013-02-11 07:01:00,
2013-02-10 23:10:00,30.0,26.0,-100.00,NNW,330,2.0,6.0,84,-99.99,,,-99.99,,2013-02-11 07:10:00,
2013-02-10 23:11:00,29.0,24.0,-100.00,WSW,250,1.0,3.0,81,-99.99,,,-99.99,,2013-02-11 07:11:00,